createdAt,value
2019-03-30T00:01:12.498Z,19.60
2019-03-30T00:03:45.331Z,19.32
2019-03-30T00:06:18.029Z,27.27
2019-03-30T00:08:50.598Z,24.63
2019-03-30T00:11:23.400Z,22.98
2019-03-30T00:13:56.038Z,25.25
2019-03-30T00:16:28.618Z,18.37
2019-03-30T00:19:01.171Z,21.93
2019-03-30T00:21:33.668Z,17.27
2019-03-30T00:24:06.338Z,21.40
2019-03-30T00:26:38.840Z,21.52
2019-03-30T00:29:11.387Z,22.02
2019-03-30T00:31:44.050Z,22.67
2019-03-30T00:34:16.856Z,20.92
2019-03-30T00:36:49.428Z,21.48
2019-03-30T00:39:21.977Z,23.05
2019-03-30T00:41:54.487Z,25.20
2019-03-30T00:44:26.878Z,23.05
2019-03-30T00:46:59.567Z,24.37
2019-03-30T00:49:32.457Z,19.80
2019-03-30T00:52:05.356Z,19.25
2019-03-30T00:54:38.143Z,25.43
2019-03-30T00:57:10.657Z,22.17
2019-03-30T00:59:43.345Z,18.15
2019-03-30T01:02:16.157Z,23.18
2019-03-30T01:04:48.998Z,21.40
2019-03-30T01:07:21.857Z,20.48
2019-03-30T01:09:57.817Z,25.35
2019-03-30T01:12:31.048Z,19.32
2019-03-30T01:15:04.216Z,22.00
2019-03-30T01:17:37.990Z,22.45
2019-03-30T01:20:10.976Z,25.55
2019-03-30T01:22:43.817Z,26.10
2019-03-30T01:25:16.656Z,23.75
2019-03-30T01:27:49.497Z,22.45
2019-03-30T01:30:23.681Z,35.00
2019-03-30T01:33:03.860Z,32.13
2019-03-30T01:35:36.967Z,20.05
2019-03-30T01:38:10.017Z,21.97
2019-03-30T01:40:43.037Z,23.83
2019-03-30T01:43:15.836Z,21.23
2019-03-30T01:45:48.679Z,22.15
2019-03-30T01:48:21.307Z,21.87
2019-03-30T01:50:54.202Z,24.10
2019-03-30T01:53:26.838Z,22.55
2019-03-30T01:55:59.916Z,29.07
2019-03-30T01:58:32.666Z,24.67
2019-03-30T02:01:05.737Z,24.37
2019-03-30T02:03:39.755Z,22.77
2019-03-30T02:06:12.514Z,26.23
2019-03-30T02:08:45.617Z,24.80
2019-03-30T02:11:18.374Z,21.62
2019-03-30T02:13:51.546Z,22.48
2019-03-30T02:16:24.197Z,20.75
2019-03-30T02:18:56.980Z,22.98
2019-03-30T02:21:33.899Z,23.32
2019-03-30T02:24:06.946Z,21.37
2019-03-30T02:26:47.887Z,24.07
2019-03-30T02:29:22.197Z,23.92
2019-03-30T02:31:55.248Z,26.05
2019-03-30T02:34:28.371Z,21.30
2019-03-30T02:37:01.361Z,23.07
2019-03-30T02:39:34.295Z,23.55
2019-03-30T02:42:07.252Z,24.47
2019-03-30T02:44:40.036Z,23.55
2019-03-30T02:47:12.930Z,21.57
2019-03-30T02:49:46.483Z,18.90
2019-03-30T02:52:19.096Z,21.17
2019-03-30T02:54:51.785Z,22.02
2019-03-30T02:57:24.580Z,21.50
2019-03-30T02:59:57.656Z,17.65
2019-03-30T03:02:30.256Z,21.10
2019-03-30T03:05:03.097Z,23.30
2019-03-30T03:07:36.688Z,17.30
2019-03-30T03:10:10.216Z,22.45
2019-03-30T03:12:42.951Z,21.17
2019-03-30T03:15:15.966Z,25.65
2019-03-30T03:17:48.736Z,24.12
2019-03-30T03:20:21.461Z,24.12
2019-03-30T03:22:54.367Z,20.32
2019-03-30T03:25:27.047Z,20.50
2019-03-30T03:27:59.909Z,20.10
2019-03-30T03:30:32.588Z,18.73
2019-03-30T03:33:05.608Z,20.90
2019-03-30T03:35:38.213Z,18.50
2019-03-30T03:38:11.018Z,18.20
2019-03-30T03:40:43.805Z,20.05
2019-03-30T03:43:16.733Z,18.55
2019-03-30T03:45:49.465Z,22.25
2019-03-30T03:48:22.458Z,19.27
2019-03-30T03:51:01.768Z,23.75
2019-03-30T03:53:36.109Z,20.32
2019-03-30T03:56:10.122Z,23.87
2019-03-30T03:58:43.909Z,19.27
2019-03-30T04:01:19.167Z,19.57
2019-03-30T04:03:54.237Z,19.60
2019-03-30T04:06:28.387Z,18.87
2019-03-30T04:09:03.905Z,20.12
2019-03-30T04:11:38.663Z,21.05
2019-03-30T04:14:14.454Z,21.33
2019-03-30T04:16:46.986Z,21.40
2019-03-30T04:19:19.918Z,16.70
2019-03-30T04:21:52.669Z,16.97
2019-03-30T04:24:26.567Z,20.35
2019-03-30T04:26:59.330Z,22.00
2019-03-30T04:29:32.159Z,19.60
2019-03-30T04:32:04.829Z,18.27
2019-03-30T04:34:37.847Z,18.95
2019-03-30T04:37:11.917Z,20.12
2019-03-30T04:39:45.022Z,19.55
2019-03-30T04:42:18.027Z,16.73
2019-03-30T04:44:51.007Z,19.87
2019-03-30T04:47:23.678Z,19.05
2019-03-30T04:49:56.677Z,20.80
2019-03-30T04:52:29.325Z,18.87
2019-03-30T04:55:02.157Z,19.82
2019-03-30T04:57:34.756Z,19.85
2019-03-30T05:00:08.322Z,17.65
2019-03-30T05:02:41.027Z,19.10
2019-03-30T05:05:14.037Z,18.17
2019-03-30T05:07:46.858Z,21.85
2019-03-30T05:10:19.776Z,15.95
2019-03-30T05:12:52.856Z,18.40
2019-03-30T05:15:25.667Z,17.20
2019-03-30T05:18:00.117Z,21.68
2019-03-30T05:20:32.915Z,19.95
2019-03-30T05:23:05.895Z,20.57
2019-03-30T05:25:39.006Z,22.22
2019-03-30T05:28:11.881Z,16.65
2019-03-30T05:30:44.597Z,20.72
2019-03-30T05:33:17.437Z,19.90
2019-03-30T05:35:50.179Z,21.40
2019-03-30T05:38:23.192Z,20.05
2019-03-30T05:40:56.054Z,20.90
2019-03-30T05:43:29.816Z,19.30
2019-03-30T05:46:02.765Z,16.77
2019-03-30T05:48:35.619Z,19.98
2019-03-30T05:51:08.257Z,20.23
2019-03-30T05:53:41.065Z,21.93
2019-03-30T05:56:13.921Z,24.40
2019-03-30T05:58:47.296Z,23.60
2019-03-30T06:01:21.280Z,22.70
2019-03-30T06:03:54.167Z,22.77
2019-03-30T06:06:26.867Z,23.45
2019-03-30T06:08:59.797Z,25.35
2019-03-30T06:11:32.547Z,24.60
2019-03-30T06:14:05.537Z,22.35
2019-03-30T06:16:38.418Z,20.12
2019-03-30T06:19:11.327Z,17.32
2019-03-30T06:21:44.136Z,21.07
2019-03-30T06:24:16.917Z,19.12
2019-03-30T06:26:49.952Z,19.57
2019-03-30T06:29:23.197Z,18.37
2019-03-30T06:31:56.015Z,18.45
2019-03-30T06:34:28.876Z,22.87
2019-03-30T06:37:01.748Z,19.50
2019-03-30T06:39:37.039Z,18.30
2019-03-30T06:42:09.426Z,19.55
2019-03-30T06:44:42.398Z,18.77
2019-03-30T06:47:15.243Z,18.67
2019-03-30T06:49:48.007Z,16.02
2019-03-30T06:52:20.847Z,18.17
2019-03-30T06:54:53.787Z,17.15
2019-03-30T06:57:26.727Z,16.87
2019-03-30T06:59:59.665Z,16.42
2019-03-30T07:02:32.467Z,19.62
2019-03-30T07:05:05.617Z,16.73
2019-03-30T07:07:40.397Z,21.07
2019-03-30T07:10:13.476Z,19.02
2019-03-30T07:12:50.067Z,19.05
2019-03-30T07:15:23.776Z,19.60
2019-03-30T07:17:59.657Z,18.48
2019-03-30T07:20:33.136Z,17.57
2019-03-30T07:23:11.969Z,18.37
2019-03-30T07:25:39.837Z,14.40
2019-03-30T07:28:12.395Z,18.10
2019-03-30T07:30:45.023Z,15.48
2019-03-30T07:33:17.597Z,14.83
2019-03-30T07:35:50.337Z,15.58
2019-03-30T07:38:22.827Z,17.52
2019-03-30T07:40:55.778Z,16.05
2019-03-30T07:43:28.376Z,16.75
2019-03-30T07:46:01.099Z,17.00
2019-03-30T07:48:33.735Z,15.38
2019-03-30T07:51:06.639Z,17.82
2019-03-30T07:53:44.595Z,16.52
2019-03-30T07:56:13.644Z,18.10
2019-03-30T07:58:46.517Z,15.55
2019-03-30T08:01:19.264Z,14.78
2019-03-30T08:03:52.289Z,16.82
2019-03-30T08:06:26.517Z,17.12
2019-03-30T08:08:59.257Z,17.40
2019-03-30T08:11:31.937Z,14.18
2019-03-30T08:14:04.896Z,15.75
2019-03-30T08:16:38.087Z,14.73
2019-03-30T08:19:11.341Z,14.63
2019-03-30T08:21:44.456Z,15.95
2019-03-30T08:24:17.111Z,17.10
2019-03-30T08:26:50.087Z,15.68
2019-03-30T08:29:22.729Z,15.35
2019-03-30T08:31:55.460Z,16.85
2019-03-30T08:34:28.467Z,19.45
2019-03-30T08:37:01.615Z,18.77
2019-03-30T08:39:35.503Z,18.77
2019-03-30T08:42:09.547Z,22.58
2019-03-30T08:44:43.456Z,22.07
2019-03-30T08:47:16.308Z,16.57
2019-03-30T08:49:50.758Z,17.10
2019-03-30T08:52:27.507Z,17.98
2019-03-30T08:55:00.381Z,16.62
2019-03-30T08:57:33.268Z,15.38
2019-03-30T09:00:07.613Z,15.13
2019-03-30T09:02:41.106Z,16.50
2019-03-30T09:05:23.597Z,16.50
2019-03-30T09:07:56.858Z,19.70
2019-03-30T09:10:32.617Z,19.02
2019-03-30T09:13:20.477Z,18.62
2019-03-30T09:16:17.437Z,19.35
2019-03-30T09:18:50.867Z,20.97
2019-03-30T09:21:29.310Z,18.75
2019-03-30T09:24:09.828Z,18.00
2019-03-30T09:26:43.067Z,19.07
2019-03-30T09:29:19.810Z,21.77
2019-03-30T09:32:14.585Z,18.45
2019-03-30T09:34:44.508Z,19.20
2019-03-30T09:37:18.740Z,23.12
2019-03-30T09:39:51.367Z,19.27
2019-03-30T09:42:25.438Z,19.17
2019-03-30T09:44:58.537Z,23.98
2019-03-30T09:47:31.547Z,18.45
2019-03-30T09:50:04.766Z,21.60
2019-03-30T09:52:37.554Z,20.40
2019-03-30T09:55:10.686Z,15.80
2019-03-30T09:57:43.357Z,22.27
2019-03-30T10:00:37.357Z,19.65
2019-03-30T10:03:13.987Z,19.10
2019-03-30T10:05:48.275Z,18.40
2019-03-30T10:08:23.537Z,17.45
2019-03-30T10:10:56.257Z,17.98
2019-03-30T10:13:29.229Z,17.67
2019-03-30T10:16:02.028Z,18.10
2019-03-30T10:18:36.237Z,19.37
2019-03-30T10:21:11.300Z,17.02
2019-03-30T10:23:53.839Z,19.40
2019-03-30T10:26:30.870Z,19.52
2019-03-30T10:29:05.717Z,19.75
2019-03-30T10:32:15.300Z,15.32
2019-03-30T10:37:39.938Z,16.40
2019-03-30T10:40:14.317Z,15.80
2019-03-30T10:42:46.818Z,16.23
2019-03-30T10:45:19.685Z,16.12
2019-03-30T10:47:52.227Z,14.35
2019-03-30T10:50:24.919Z,17.23
2019-03-30T10:52:57.448Z,15.10
2019-03-30T10:55:30.046Z,18.60
2019-03-30T10:58:02.801Z,21.12
2019-03-30T11:00:42.476Z,20.20
2019-03-30T11:03:15.466Z,19.85
2019-03-30T11:05:48.087Z,18.05
2019-03-30T11:08:20.738Z,31.15
2019-03-30T11:10:53.476Z,41.55
2019-03-30T11:13:26.009Z,38.40
2019-03-30T11:15:58.598Z,43.95
2019-03-30T11:18:31.130Z,47.90
2019-03-30T11:21:05.057Z,68.65
2019-03-30T11:23:37.867Z,101.97
2019-03-30T11:26:10.437Z,62.45
2019-03-30T11:28:43.176Z,57.62
2019-03-30T11:31:15.786Z,53.68
2019-03-30T11:33:48.369Z,44.55
2019-03-30T11:36:21.039Z,44.98
2019-03-30T11:38:54.718Z,47.38
2019-03-30T11:41:27.357Z,48.73
2019-03-30T11:44:00.026Z,40.50
2019-03-30T11:46:32.794Z,43.55
2019-03-30T11:49:05.897Z,44.83
2019-03-30T11:51:39.886Z,43.15
2019-03-30T11:54:12.796Z,48.23
2019-03-30T11:56:57.366Z,77.22
2019-03-30T11:59:30.342Z,69.05
2019-03-30T12:02:07.307Z,94.75
2019-03-30T12:04:42.696Z,51.40
2019-03-30T12:07:21.116Z,28.52
2019-03-30T12:09:53.851Z,29.18
2019-03-30T12:12:37.537Z,48.05
2019-03-30T12:15:17.066Z,34.45
2019-03-30T12:17:49.654Z,37.45
2019-03-30T12:20:22.486Z,41.15
2019-03-30T12:22:55.141Z,30.02
2019-03-30T12:25:35.468Z,32.55
2019-03-30T12:28:19.986Z,27.37
2019-03-30T12:30:52.588Z,36.70
2019-03-30T12:33:25.636Z,24.47
2019-03-30T12:35:58.237Z,27.17
2019-03-30T12:38:30.758Z,30.45
2019-03-30T12:41:13.417Z,30.85
2019-03-30T12:43:45.947Z,27.45
2019-03-30T12:46:18.444Z,56.73
2019-03-30T12:48:51.391Z,66.35
2019-03-30T12:51:46.317Z,96.12
2019-03-30T12:54:27.835Z,41.10
2019-03-30T12:57:52.339Z,179.97
2019-03-30T13:00:34.273Z,30.88
2019-03-30T13:03:12.697Z,42.05
2019-03-30T13:05:46.918Z,49.45
2019-03-30T13:08:25.608Z,55.55
2019-03-30T13:11:02.138Z,296.05
2019-03-30T13:14:06.159Z,241.88
2019-03-30T13:16:43.306Z,40.45
2019-03-30T13:19:59.545Z,53.17
2019-03-30T13:22:35.781Z,39.70
2019-03-30T13:25:08.870Z,96.47
2019-03-30T13:27:43.149Z,32.20
2019-03-30T13:30:16.477Z,34.98
2019-03-30T13:32:49.127Z,32.63
2019-03-30T13:35:24.598Z,33.58
2019-03-30T13:38:15.227Z,297.90
2019-03-30T13:40:49.048Z,33.55
2019-03-30T13:43:21.918Z,28.65
2019-03-30T13:45:54.637Z,31.57
2019-03-30T13:48:27.337Z,31.70
2019-03-30T13:51:00.049Z,25.72
2019-03-30T13:53:38.628Z,28.25
2019-03-30T13:56:17.073Z,30.62
2019-03-30T13:58:43.951Z,28.32
2019-03-30T14:01:17.052Z,27.10
2019-03-30T14:03:49.808Z,27.82
2019-03-30T14:06:22.397Z,32.10
2019-03-30T14:08:54.986Z,30.77
2019-03-30T14:11:27.812Z,30.60
2019-03-30T14:14:08.869Z,29.82
2019-03-30T14:16:48.007Z,114.60
2019-03-30T14:19:27.454Z,28.25
2019-03-30T14:22:03.057Z,27.75
2019-03-30T14:24:36.031Z,27.10
2019-03-30T14:27:11.750Z,30.17
2019-03-30T14:29:45.149Z,29.00
2019-03-30T14:32:20.028Z,27.60
2019-03-30T14:34:53.346Z,24.02
2019-03-30T14:37:28.796Z,27.95
2019-03-30T14:40:34.422Z,37.75
2019-03-30T14:43:25.917Z,29.27
2019-03-30T14:46:04.924Z,30.50
2019-03-30T14:49:04.597Z,33.23
2019-03-30T14:51:45.547Z,38.78
2019-03-30T14:54:24.347Z,37.90
2019-03-30T14:57:13.031Z,28.27
2019-03-30T14:59:50.050Z,30.12
2019-03-30T15:02:32.399Z,43.17
2019-03-30T15:05:13.629Z,31.05
2019-03-30T15:11:17.971Z,24.70
2019-03-30T15:13:50.757Z,26.97
2019-03-30T15:17:20.997Z,29.45
2019-03-30T15:20:32.312Z,76.42
2019-03-30T15:24:02.337Z,63.73
2019-03-30T15:26:59.861Z,39.23
2019-03-30T15:33:26.937Z,79.07
2019-03-30T15:43:43.288Z,76.15
2019-03-30T15:47:04.678Z,223.25
2019-03-30T15:50:38.356Z,31.90
2019-03-30T15:53:46.231Z,114.65
2019-03-30T15:55:25.897Z,127.87
2019-03-30T15:56:34.376Z,22.98
2019-03-30T15:59:36.547Z,30.55
2019-03-30T16:10:59.411Z,30.30
2019-03-30T16:12:32.247Z,34.65
2019-03-30T16:22:32.826Z,311.15
2019-03-30T16:25:25.200Z,155.65
2019-03-30T16:27:59.042Z,87.60
2019-03-30T16:30:58.967Z,77.03
2019-03-30T16:33:43.017Z,33.83
2019-03-30T16:36:38.096Z,154.25
2019-03-30T16:39:21.446Z,97.67
2019-03-30T16:41:53.698Z,40.63
2019-03-30T16:44:51.907Z,34.90
2019-03-30T16:50:17.737Z,38.13
2019-03-30T16:52:54.186Z,49.20
2019-03-30T16:55:29.957Z,57.53
2019-03-30T16:58:12.408Z,56.10
2019-03-30T17:05:53.238Z,162.68
2019-03-30T17:08:31.849Z,171.13
2019-03-30T17:11:04.831Z,153.07
2019-03-30T17:13:38.777Z,105.78
2019-03-30T17:16:15.028Z,107.40
2019-03-30T17:19:07.667Z,88.00
2019-03-30T17:21:43.767Z,81.92
2019-03-30T17:24:16.257Z,67.50
2019-03-30T17:26:48.977Z,49.65
2019-03-30T17:29:21.467Z,51.45
2019-03-30T17:31:54.257Z,41.48
2019-03-30T17:34:26.748Z,44.27
2019-03-30T17:36:59.298Z,47.43
2019-03-30T17:39:31.797Z,46.60
2019-03-30T17:42:04.397Z,62.25
2019-03-30T17:44:37.186Z,61.40
2019-03-30T17:47:09.847Z,60.65
2019-03-30T17:49:42.557Z,52.40
2019-03-30T17:52:15.437Z,60.50
2019-03-30T17:54:49.227Z,61.92
2019-03-30T17:57:21.698Z,63.73
2019-03-30T17:59:54.298Z,56.58
2019-03-30T18:02:32.517Z,70.12
2019-03-30T18:05:11.237Z,59.67
2019-03-30T18:07:45.386Z,61.85
2019-03-30T18:10:18.247Z,62.98
2019-03-30T18:12:51.008Z,68.30
2019-03-30T18:15:24.210Z,87.97
2019-03-30T18:17:57.064Z,120.45
2019-03-30T18:20:29.779Z,108.95
2019-03-30T18:23:02.558Z,119.15
2019-03-30T18:25:35.278Z,123.87
2019-03-30T18:28:07.741Z,104.85
2019-03-30T18:30:41.388Z,101.78
2019-03-30T18:33:13.917Z,100.97
2019-03-30T18:35:46.795Z,76.95
2019-03-30T18:38:21.957Z,77.85
2019-03-30T18:40:57.176Z,92.42
2019-03-30T18:43:30.926Z,78.50
2019-03-30T18:46:03.442Z,78.75
2019-03-30T18:48:36.324Z,69.15
2019-03-30T18:51:09.176Z,84.77
2019-03-30T18:53:42.816Z,81.90
2019-03-30T18:56:15.906Z,94.90
2019-03-30T18:58:48.614Z,100.33
2019-03-30T19:01:21.314Z,106.97
2019-03-30T19:03:53.956Z,112.30
2019-03-30T19:06:26.906Z,100.58
2019-03-30T19:08:59.676Z,106.80
2019-03-30T19:11:33.014Z,99.07
2019-03-30T19:14:06.020Z,100.97
2019-03-30T19:16:38.786Z,106.37
2019-03-30T19:19:11.369Z,95.92
2019-03-30T19:21:45.067Z,99.20
2019-03-30T19:24:18.544Z,101.20
2019-03-30T19:26:55.277Z,108.03
2019-03-30T19:29:28.227Z,101.02
2019-03-30T19:32:02.095Z,94.62
2019-03-30T19:34:35.176Z,99.47
2019-03-30T19:37:07.990Z,89.47
2019-03-30T19:39:40.806Z,104.12
2019-03-30T19:42:15.711Z,90.75
2019-03-30T19:44:48.374Z,96.42
2019-03-30T19:47:21.116Z,128.80
2019-03-30T19:49:54.026Z,105.20
2019-03-30T19:52:39.265Z,130.93
2019-03-30T19:55:00.906Z,103.97
2019-03-30T19:57:33.899Z,89.83
2019-03-30T20:00:07.616Z,95.85
2019-03-30T20:02:41.648Z,95.17
2019-03-30T20:05:14.735Z,94.95
2019-03-30T20:07:47.415Z,89.60
2019-03-30T20:10:20.719Z,100.30
2019-03-30T20:12:54.306Z,99.32
2019-03-30T20:15:27.275Z,92.80
2019-03-30T20:18:00.258Z,94.50
2019-03-30T20:20:33.079Z,82.42
2019-03-30T20:23:06.706Z,92.12
2019-03-30T20:25:39.520Z,90.95
2019-03-30T20:28:12.380Z,78.72
2019-03-30T20:30:45.074Z,65.67
2019-03-30T20:33:19.200Z,85.38
2019-03-30T20:35:52.006Z,76.00
2019-03-30T20:38:24.756Z,79.75
2019-03-30T20:40:57.480Z,70.03
2019-03-30T20:43:36.627Z,88.82
2019-03-30T20:46:09.416Z,80.00
2019-03-30T20:48:42.997Z,147.45
2019-03-30T20:51:17.206Z,94.35
2019-03-30T20:53:50.257Z,108.83
2019-03-30T20:56:23.235Z,101.05
2019-03-30T20:58:55.914Z,122.47
2019-03-30T21:01:28.977Z,128.62
2019-03-30T21:04:02.098Z,100.00
2019-03-30T21:06:35.014Z,103.85
2019-03-30T21:09:09.356Z,93.92
2019-03-30T21:11:42.396Z,98.50
2019-03-30T21:14:15.216Z,103.75
2019-03-30T21:16:49.140Z,95.20
2019-03-30T21:19:21.817Z,95.65
2019-03-30T21:21:54.416Z,106.00
2019-03-30T21:24:26.957Z,93.97
2019-03-30T21:26:59.647Z,100.47
2019-03-30T21:29:32.326Z,130.87
2019-03-30T21:32:05.836Z,117.40
2019-03-30T21:34:38.826Z,102.55
2019-03-30T21:37:11.726Z,115.62
2019-03-30T21:39:44.706Z,126.33
2019-03-30T21:42:17.287Z,124.80
2019-03-30T21:44:50.216Z,95.50
2019-03-30T21:47:22.936Z,102.38
2019-03-30T21:49:55.617Z,120.08
2019-03-30T21:52:28.238Z,118.45
2019-03-30T21:55:01.307Z,126.87
2019-03-30T21:57:35.006Z,178.15
2019-03-30T22:00:11.461Z,147.50
2019-03-30T22:02:44.150Z,171.57
2019-03-30T22:05:16.757Z,198.75
2019-03-30T22:07:49.726Z,149.30
2019-03-30T22:10:29.505Z,174.40
2019-03-30T22:13:02.726Z,151.78
2019-03-30T22:15:35.597Z,155.82
2019-03-30T22:18:08.246Z,137.50
2019-03-30T22:20:40.743Z,137.05
2019-03-30T22:23:13.583Z,112.37
2019-03-30T22:25:46.524Z,121.13
2019-03-30T22:28:19.384Z,117.95
2019-03-30T22:30:52.096Z,117.93
2019-03-30T22:33:24.750Z,117.57
2019-03-30T22:35:57.506Z,115.50
2019-03-30T22:38:30.113Z,101.10
2019-03-30T22:41:02.526Z,99.20
2019-03-30T22:43:35.176Z,92.72
2019-03-30T22:46:07.954Z,95.40
2019-03-30T22:48:40.754Z,85.87
2019-03-30T22:51:13.314Z,78.72
2019-03-30T22:53:46.065Z,76.40
2019-03-30T22:56:19.104Z,83.55
2019-03-30T22:58:52.586Z,85.03
2019-03-30T23:01:25.804Z,87.12
2019-03-30T23:03:58.505Z,94.77
2019-03-30T23:06:31.146Z,99.20
2019-03-30T23:09:05.023Z,105.37
2019-03-30T23:11:37.837Z,114.92
2019-03-30T23:14:10.298Z,109.97
2019-03-30T23:16:42.877Z,124.02
2019-03-30T23:19:15.538Z,132.30
2019-03-30T23:21:48.233Z,122.15
2019-03-30T23:24:20.779Z,126.85
2019-03-30T23:26:53.357Z,120.20
2019-03-30T23:29:26.014Z,137.32
2019-03-30T23:31:58.482Z,137.47
2019-03-30T23:34:30.999Z,117.72
2019-03-30T23:37:03.594Z,128.38
2019-03-30T23:39:36.444Z,143.70
2019-03-30T23:42:08.893Z,127.15
2019-03-30T23:44:41.534Z,125.92
2019-03-30T23:47:14.327Z,131.52
2019-03-30T23:49:46.936Z,127.30
2019-03-30T23:52:19.340Z,121.55
2019-03-30T23:54:51.855Z,131.82
2019-03-30T23:57:24.387Z,134.60
2019-03-30T23:59:56.975Z,128.78
